Time;durP1;ratioP1;P1;durP2;ratioP2;P2;SDS_P1;SDS_P2;PMS_P1;PMS_P2;Temp;Humidity;BMP_temperature;BMP_pressure;BME280_temperature;BME280_humidity;BME280_pressure;Samples;Min_cycle;Max_cycle;Signal;HPM_P1;HPM_P2
2022/01/18 00:00:18;;;;;;;37.72;6.80;;;3.30;99.90;;;;;;5080808;28;20020;-43
2022/01/18 00:02:43;;;;;;;31.75;6.30;;;3.30;99.90;;;;;;5088064;28;20066;-43
2022/01/18 00:05:14;;;;;;;28.65;5.95;;;3.30;99.90;;;;;;5089109;28;20532;-44
2022/01/18 00:07:45;;;;;;;30.95;5.88;;;3.30;99.90;;;;;;5088603;28;20024;-44
2022/01/18 00:10:12;;;;;;;40.10;8.02;;;3.40;99.90;;;;;;5087810;28;20016;-46
2022/01/18 00:18:07;;;;;;;33.28;5.40;;;3.40;99.90;;;;;;5088441;28;20038;-43
2022/01/18 00:20:58;;;;;;;29.13;5.93;;;3.50;99.90;;;;;;5089113;28;20117;-44
2022/01/18 00:23:25;;;;;;;28.88;7.65;;;3.40;99.90;;;;;;5088877;28;20127;-42
2022/01/18 00:25:54;;;;;;;40.30;9.02;;;3.40;99.90;;;;;;5088865;28;20343;-43
2022/01/18 00:28:22;;;;;;;36.40;7.43;;;3.50;99.90;;;;;;5078630;28;20027;-43
2022/01/18 00:31:28;;;;;;;37.25;7.43;;;3.50;99.90;;;;;;5084582;28;20017;-43
2022/01/18 00:33:55;;;;;;;35.35;5.57;;;3.50;99.90;;;;;;5088708;28;20102;-42
2022/01/18 00:36:28;;;;;;;43.88;6.72;;;3.50;99.90;;;;;;5088753;28;20114;-43
2022/01/18 00:38:55;;;;;;;26.02;5.85;;;3.60;99.90;;;;;;5087968;28;20022;-43
2022/01/18 00:41:24;;;;;;;31.98;7.25;;;3.60;99.90;;;;;;5088614;28;20032;-43
2022/01/18 00:43:49;;;;;;;34.80;7.00;;;3.60;99.90;;;;;;5088320;28;20450;-45
2022/01/18 00:46:16;;;;;;;24.77;5.07;;;3.70;99.90;;;;;;5087169;28;20028;-44
2022/01/18 00:48:42;;;;;;;46.08;7.10;;;3.70;99.90;;;;;;5088030;28;20055;-43
2022/01/18 00:51:12;;;;;;;29.83;5.07;;;3.70;99.90;;;;;;5088602;28;20055;-42
2022/01/18 00:53:38;;;;;;;26.20;5.70;;;3.80;99.90;;;;;;5087331;28;20028;-43
2022/01/18 00:56:26;;;;;;;27.00;5.88;;;3.80;99.90;;;;;;5088530;28;20029;-43
2022/01/18 00:58:53;;;;;;;37.42;6.45;;;3.90;99.90;;;;;;5072429;28;20028;-42
2022/01/18 01:01:21;;;;;;;19.73;5.32;;;3.90;99.90;;;;;;5048440;28;20033;-43
2022/01/18 01:03:47;;;;;;;20.88;5.43;;;3.90;99.90;;;;;;5047055;28;20523;-43
2022/01/18 01:06:12;;;;;;;31.67;8.32;;;3.90;99.90;;;;;;5048151;28;20025;-42
2022/01/18 01:08:38;;;;;;;27.42;5.80;;;4.00;99.90;;;;;;5047945;28;20021;-43
2022/01/18 01:11:05;;;;;;;28.70;5.47;;;4.00;99.90;;;;;;5048130;28;20029;-44
2022/01/18 01:13:32;;;;;;;37.88;5.95;;;4.10;99.90;;;;;;5048264;28;20021;-43
2022/01/18 01:45:35;;;;;;;28.67;5.50;;;4.40;99.90;;;;;;5067923;28;20102;-43
2022/01/18 01:48:01;;;;;;;36.08;6.43;;;4.40;99.90;;;;;;5067336;28;20018;-45
2022/01/18 01:50:40;;;;;;;28.55;5.93;;;4.50;99.90;;;;;;5069369;28;20044;-44
2022/01/18 01:53:06;;;;;;;33.33;6.45;;;4.40;99.90;;;;;;5070095;28;20023;-43
2022/01/18 01:55:31;;;;;;;35.35;5.80;;;4.50;99.90;;;;;;5071458;28;20028;-44
2022/01/18 01:57:57;;;;;;;27.63;6.32;;;4.50;99.90;;;;;;5078695;28;20047;-43
2022/01/18 02:00:23;;;;;;;22.98;5.45;;;4.50;99.90;;;;;;5083935;28;20326;-43
2022/01/18 02:02:48;;;;;;;25.08;5.45;;;4.50;99.90;;;;;;5091549;28;20397;-44
2022/01/18 02:05:14;;;;;;;50.35;9.13;;;4.50;99.90;;;;;;5091456;28;20028;-43
2022/01/18 02:07:39;;;;;;;47.05;7.70;;;4.50;99.90;;;;;;5091017;28;20012;-44
2022/01/18 02:10:10;;;;;;;32.47;6.18;;;4.60;99.90;;;;;;5091466;28;20028;-44
2022/01/18 02:12:37;;;;;;;29.77;5.55;;;4.60;99.90;;;;;;5091262;28;20078;-44
2022/01/18 02:15:11;;;;;;;40.10;5.88;;;4.70;99.90;;;;;;5091263;28;20169;-43
2022/01/18 02:23:26;;;;;;;33.03;6.30;;;4.70;99.90;;;;;;5091689;28;20074;-43
2022/01/18 02:25:52;;;;;;;36.42;5.05;;;4.70;99.90;;;;;;5091077;28;20020;-43
2022/01/18 02:28:20;;;;;;;30.27;6.65;;;4.70;99.90;;;;;;5081876;28;20709;-46
2022/01/18 02:30:46;;;;;;;36.65;6.15;;;4.70;99.90;;;;;;5086481;28;20107;-46
2022/01/18 02:33:13;;;;;;;33.88;6.78;;;4.70;99.90;;;;;;5090989;28;20027;-43
2022/01/18 02:35:38;;;;;;;28.83;5.35;;;4.70;99.90;;;;;;5091297;28;20111;-43
2022/01/18 02:38:04;;;;;;;46.33;6.82;;;4.70;99.90;;;;;;5089031;28;20130;-42
2022/01/18 02:40:31;;;;;;;36.72;6.20;;;4.80;99.90;;;;;;5091011;28;20035;-43
2022/01/18 02:43:02;;;;;;;29.63;4.72;;;4.80;99.90;;;;;;5090685;28;20100;-43
2022/01/18 02:45:28;;;;;;;55.30;8.40;;;4.80;99.90;;;;;;5090800;28;20032;-42
2022/01/18 02:47:54;;;;;;;36.40;7.00;;;4.80;99.90;;;;;;5084606;28;20028;-43
2022/01/18 02:50:23;;;;;;;29.92;5.15;;;4.80;99.90;;;;;;5061715;28;20324;-43
2022/01/18 02:52:49;;;;;;;33.90;6.78;;;4.80;99.90;;;;;;5069041;28;20531;-42
2022/01/18 02:55:14;;;;;;;32.20;5.75;;;4.80;99.90;;;;;;5070621;28;20020;-43
2022/01/18 02:57:54;;;;;;;25.90;6.22;;;4.80;99.90;;;;;;5076265;28;20103;-42
2022/01/18 03:00:31;;;;;;;32.05;5.40;;;4.80;99.90;;;;;;5074600;28;20036;-43
2022/01/18 03:03:14;;;;;;;38.97;6.32;;;4.80;99.90;;;;;;5079526;28;20067;-43
2022/01/18 03:05:44;;;;;;;43.13;7.68;;;4.80;99.90;;;;;;5059307;28;20032;-43
2022/01/18 03:08:12;;;;;;;33.63;5.35;;;4.90;99.90;;;;;;5050052;28;20029;-45
2022/01/18 03:10:39;;;;;;;29.23;6.70;;;4.90;99.90;;;;;;5050150;28;20033;-43
2022/01/18 03:13:05;;;;;;;34.92;5.15;;;4.90;99.90;;;;;;5049867;28;20240;-42
2022/01/18 03:15:33;;;;;;;23.45;4.75;;;4.90;99.90;;;;;;5050244;28;20037;-45
2022/01/18 03:18:00;;;;;;;33.83;6.38;;;4.90;99.90;;;;;;5049554;28;20055;-43
2022/01/18 03:20:26;;;;;;;26.30;5.28;;;4.90;99.90;;;;;;5050204;28;20036;-42
2022/01/18 03:22:52;;;;;;;29.50;4.53;;;4.90;99.90;;;;;;5049841;28;20035;-42
2022/01/18 03:25:38;;;;;;;17.73;5.22;;;4.90;99.90;;;;;;5049822;28;20108;-44
2022/01/18 03:28:06;;;;;;;15.57;4.00;;;5.00;99.90;;;;;;5067782;28;20013;-45
2022/01/18 03:30:37;;;;;;;24.85;6.60;;;5.00;99.90;;;;;;5061962;28;20017;-46
2022/01/18 03:33:04;;;;;;;27.73;5.13;;;5.00;99.90;;;;;;5053477;28;20052;-42
2022/01/18 03:35:30;;;;;;;26.83;6.35;;;5.00;99.90;;;;;;5057006;28;20040;-43
2022/01/18 03:37:55;;;;;;;26.38;5.05;;;5.00;99.90;;;;;;5057573;28;20025;-43
2022/01/18 03:40:21;;;;;;;22.73;4.50;;;5.00;99.90;;;;;;5057840;28;20340;-42
2022/01/18 03:42:48;;;;;;;21.85;3.47;;;5.00;99.90;;;;;;5049249;28;20389;-42
2022/01/18 03:45:28;;;;;;;22.27;5.25;;;5.00;99.90;;;;;;5055912;28;20017;-43
2022/01/18 03:47:57;;;;;;;22.50;3.60;;;5.10;99.90;;;;;;5067529;28;20043;-43
2022/01/18 03:50:23;;;;;;;17.90;4.20;;;5.20;99.90;;;;;;5069154;28;20174;-43
2022/01/18 03:52:49;;;;;;;16.08;3.10;;;5.10;99.90;;;;;;5069197;28;20035;-43
2022/01/18 03:55:18;;;;;;;23.45;3.97;;;5.10;99.90;;;;;;5069459;28;20024;-43
2022/01/18 03:57:44;;;;;;;14.27;4.00;;;5.10;99.90;;;;;;5074445;28;20020;-42
2022/01/18 04:00:16;;;;;;;25.40;4.07;;;5.10;99.90;;;;;;5080663;28;20065;-43
2022/01/18 04:02:42;;;;;;;19.02;4.18;;;5.10;99.90;;;;;;5089310;28;20167;-47
2022/01/18 04:05:08;;;;;;;16.77;3.05;;;5.10;99.90;;;;;;5089040;28;20020;-46
2022/01/18 04:07:34;;;;;;;21.95;3.53;;;5.10;99.90;;;;;;5088595;28;20024;-46
2022/01/18 04:09:59;;;;;;;16.65;3.30;;;5.10;99.90;;;;;;5089305;28;20031;-43
2022/01/18 04:12:25;;;;;;;15.13;3.60;;;5.10;99.90;;;;;;5088291;28;20478;-44
2022/01/18 04:14:50;;;;;;;22.83;4.30;;;5.10;99.90;;;;;;5089230;28;20566;-45
2022/01/18 04:17:32;;;;;;;25.90;4.35;;;5.10;99.90;;;;;;5088421;28;20060;-43
2022/01/18 04:30:42;;;;;;;14.60;3.08;;;5.10;99.90;;;;;;5084160;28;20024;-45
2022/01/18 04:33:08;;;;;;;21.50;4.45;;;5.10;99.90;;;;;;5087564;28;20023;-44
2022/01/18 04:35:33;;;;;;;13.45;2.72;;;5.20;99.90;;;;;;5086277;28;20035;-47
2022/01/18 04:37:59;;;;;;;13.90;2.90;;;5.10;99.90;;;;;;5059003;28;20504;-45
2022/01/18 04:40:29;;;;;;;16.33;3.30;;;5.20;99.90;;;;;;5051270;28;20041;-44
2022/01/18 04:43:25;;;;;;;22.00;2.97;;;5.20;99.90;;;;;;5048669;28;20103;-44
2022/01/18 04:48:36;;;;;;;22.13;3.95;;;5.20;99.90;;;;;;5048145;28;20035;-44
2022/01/18 04:51:10;;;;;;;14.52;2.92;;;5.20;99.90;;;;;;5047303;28;20021;-44
2022/01/18 04:53:44;;;;;;;11.02;4.47;;;5.20;99.90;;;;;;5048488;28;20059;-45
2022/01/18 04:56:15;;;;;;;9.43;2.58;;;5.20;99.90;;;;;;5048365;28;20075;-47
2022/01/18 04:58:41;;;;;;;16.52;2.17;;;5.20;99.90;;;;;;5072170;28;20016;-45
2022/01/18 05:01:08;;;;;;;15.93;2.70;;;5.20;99.90;;;;;;5085647;28;20074;-48
2022/01/18 05:03:34;;;;;;;12.32;2.20;;;5.20;99.90;;;;;;5088598;28;20016;-44
2022/01/18 05:06:06;;;;;;;14.02;3.00;;;5.20;99.90;;;;;;5087403;28;20508;-46
2022/01/18 05:08:32;;;;;;;7.45;2.42;;;5.20;99.90;;;;;;5087508;28;20077;-44
2022/01/18 05:10:58;;;;;;;9.48;1.60;;;5.20;99.90;;;;;;5088676;28;20250;-44
2022/01/18 05:21:34;;;;;;;7.78;1.80;;;5.30;99.90;;;;;;5059049;28;20032;-46
2022/01/18 05:24:00;;;;;;;13.43;2.10;;;5.30;99.90;;;;;;5063485;28;20038;-45
2022/01/18 05:26:27;;;;;;;12.65;1.70;;;5.30;99.90;;;;;;5071649;28;20032;-44
2022/01/18 05:28:53;;;;;;;10.07;2.42;;;5.30;99.90;;;;;;5079670;28;20019;-44
2022/01/18 05:31:19;;;;;;;7.00;2.20;;;5.30;99.90;;;;;;5092373;28;20032;-45
2022/01/18 05:33:46;;;;;;;8.75;2.17;;;5.30;99.90;;;;;;5092238;28;20023;-45
2022/01/18 05:36:12;;;;;;;7.68;1.67;;;5.30;99.90;;;;;;5092239;28;20077;-45
2022/01/18 05:38:38;;;;;;;10.35;2.28;;;5.30;99.90;;;;;;5091573;28;20024;-45
2022/01/18 05:41:05;;;;;;;15.60;2.15;;;5.30;99.90;;;;;;5092284;28;20069;-45
2022/01/18 05:43:31;;;;;;;10.07;2.17;;;5.30;99.90;;;;;;5091738;28;20028;-45
2022/01/18 05:45:56;;;;;;;10.40;2.08;;;5.30;99.90;;;;;;5091877;28;20428;-45
2022/01/18 05:48:23;;;;;;;10.02;2.10;;;5.30;99.90;;;;;;5091458;28;20036;-44
2022/01/18 05:50:49;;;;;;;7.47;1.75;;;5.30;99.90;;;;;;5085673;28;20047;-46
2022/01/18 05:53:14;;;;;;;9.25;2.17;;;5.30;99.90;;;;;;5068312;28;20479;-44
2022/01/18 05:55:40;;;;;;;10.65;2.70;;;5.30;99.90;;;;;;5067552;28;20029;-45
2022/01/18 05:58:05;;;;;;;8.40;1.63;;;5.30;99.90;;;;;;5071794;28;20111;-46
2022/01/18 06:00:31;;;;;;;13.13;2.45;;;5.30;99.90;;;;;;5067998;28;20033;-43
2022/01/18 06:08:09;;;;;;;7.85;2.13;;;5.30;99.90;;;;;;5064329;28;20162;-44
2022/01/18 06:10:34;;;;;;;10.48;1.95;;;5.30;99.90;;;;;;5074599;28;20439;-45
2022/01/18 06:13:02;;;;;;;8.57;2.33;;;5.30;99.90;;;;;;5076258;28;20024;-45
2022/01/18 06:15:28;;;;;;;11.65;2.80;;;5.20;99.90;;;;;;5063769;28;20025;-44
2022/01/18 06:17:54;;;;;;;12.40;1.70;;;5.30;99.90;;;;;;5072133;28;20077;-44
2022/01/18 06:20:19;;;;;;;13.55;2.15;;;5.30;99.90;;;;;;5079477;28;20036;-44
2022/01/18 06:22:45;;;;;;;30.85;4.20;;;5.20;99.90;;;;;;5080312;28;20479;-46
2022/01/18 06:25:11;;;;;;;13.27;2.47;;;5.20;99.90;;;;;;5075866;28;20120;-44
2022/01/18 06:27:37;;;;;;;12.95;2.35;;;5.20;99.90;;;;;;5071788;28;20027;-44
2022/01/18 06:30:09;;;;;;;14.95;2.25;;;5.20;99.90;;;;;;5059374;28;20081;-43
2022/01/18 06:32:35;;;;;;;11.63;2.70;;;5.20;99.90;;;;;;5073159;28;20515;-44
2022/01/18 06:35:01;;;;;;;11.93;2.47;;;5.10;99.90;;;;;;5082586;28;20042;-43
2022/01/18 06:37:27;;;;;;;13.68;2.92;;;5.20;99.90;;;;;;5059355;28;20040;-43
2022/01/18 06:39:53;;;;;;;20.27;2.90;;;5.10;99.90;;;;;;5055500;28;20029;-45
2022/01/18 06:42:20;;;;;;;8.90;2.72;;;5.20;99.90;;;;;;5049209;28;20021;-46
2022/01/18 06:44:46;;;;;;;20.13;2.67;;;5.10;99.90;;;;;;5050225;28;20025;-44
2022/01/18 06:47:11;;;;;;;12.77;2.92;;;5.20;99.90;;;;;;5068894;28;20073;-44
2022/01/18 06:49:37;;;;;;;14.50;3.47;;;5.20;99.90;;;;;;5066712;28;20064;-44
2022/01/18 06:52:02;;;;;;;12.80;2.70;;;5.20;99.90;;;;;;5069223;28;20024;-44
2022/01/18 06:54:28;;;;;;;12.07;2.63;;;5.20;99.90;;;;;;5052359;28;20043;-44
2022/01/18 06:56:54;;;;;;;18.05;3.60;;;5.20;99.90;;;;;;5064121;28;20228;-45
2022/01/18 06:59:19;;;;;;;12.18;2.78;;;5.20;99.90;;;;;;5063272;28;20029;-47
2022/01/18 07:01:45;;;;;;;16.17;2.92;;;5.20;99.90;;;;;;5065798;28;20039;-45
2022/01/18 07:04:10;;;;;;;17.27;2.95;;;5.20;99.90;;;;;;5064166;28;20035;-45
2022/01/18 07:06:36;;;;;;;17.73;2.60;;;5.20;99.90;;;;;;5077075;28;20039;-46
2022/01/18 07:09:02;;;;;;;13.93;2.83;;;5.10;99.90;;;;;;5072155;28;20051;-44
2022/01/18 07:11:28;;;;;;;14.95;2.65;;;5.10;99.90;;;;;;5081626;28;20028;-44
2022/01/18 07:13:53;;;;;;;10.80;2.45;;;5.10;99.90;;;;;;5060579;28;20028;-44
2022/01/18 07:16:19;;;;;;;18.98;2.85;;;5.10;99.90;;;;;;5050181;28;20033;-44
2022/01/18 07:18:45;;;;;;;10.07;2.05;;;5.10;99.90;;;;;;5056897;28;20032;-44
2022/01/18 07:21:11;;;;;;;6.15;2.28;;;5.10;99.90;;;;;;5057988;28;20024;-44
2022/01/18 07:23:37;;;;;;;9.18;2.22;;;5.20;99.90;;;;;;5059704;28;20478;-44
2022/01/18 07:26:03;;;;;;;7.95;2.53;;;5.20;99.90;;;;;;5057529;28;20501;-44
2022/01/18 07:28:29;;;;;;;12.25;2.92;;;5.20;99.90;;;;;;5063873;28;20445;-44
2022/01/18 07:30:54;;;;;;;14.57;3.47;;;5.20;99.90;;;;;;5085259;28;20024;-44
2022/01/18 07:33:20;;;;;;;15.10;2.35;;;5.10;99.90;;;;;;5066828;28;20275;-43
2022/01/18 07:35:47;;;;;;;15.75;3.50;;;5.10;99.90;;;;;;5067592;28;20505;-43
2022/01/18 07:38:16;;;;;;;20.85;4.07;;;5.00;99.90;;;;;;5056598;28;20052;-44
2022/01/18 07:40:43;;;;;;;13.10;2.90;;;4.90;99.90;;;;;;5052252;28;20390;-44
2022/01/18 07:43:09;;;;;;;15.10;2.85;;;4.90;99.90;;;;;;5076154;28;20024;-44
2022/01/18 07:45:36;;;;;;;16.27;2.85;;;4.90;99.90;;;;;;5074903;28;20028;-45
2022/01/18 07:48:01;;;;;;;13.32;2.88;;;4.90;99.90;;;;;;5058313;28;20088;-44
2022/01/18 07:50:27;;;;;;;11.65;2.78;;;5.00;99.90;;;;;;5069131;28;20044;-43
2022/01/18 07:52:52;;;;;;;14.18;3.03;;;5.00;99.90;;;;;;5069165;28;20030;-44
2022/01/18 07:55:18;;;;;;;27.73;3.70;;;5.00;99.90;;;;;;5062375;28;20025;-44
2022/01/18 07:57:44;;;;;;;12.48;2.72;;;5.00;99.90;;;;;;5074215;28;20031;-45
2022/01/18 08:00:11;;;;;;;10.30;2.63;;;5.10;99.90;;;;;;5080486;28;20032;-45
2022/01/18 08:02:37;;;;;;;11.38;2.67;;;5.10;99.90;;;;;;5089532;28;20020;-45
2022/01/18 08:05:08;;;;;;;15.15;3.65;;;5.20;99.90;;;;;;5068715;28;20597;-44
2022/01/18 08:07:34;;;;;;;13.65;3.95;;;5.20;99.90;;;;;;5061940;28;20351;-44
2022/01/18 08:10:00;;;;;;;9.57;2.55;;;5.30;99.90;;;;;;5052650;28;20031;-44
2022/01/18 08:12:25;;;;;;;7.97;2.35;;;5.30;99.90;;;;;;5047362;28;20045;-44
2022/01/18 08:14:54;;;;;;;6.85;2.83;;;5.40;99.90;;;;;;5052021;28;20087;-44
2022/01/18 08:17:22;;;;;;;13.02;3.00;;;5.40;99.90;;;;;;5051321;28;20054;-44
2022/01/18 08:19:47;;;;;;;10.30;3.08;;;5.50;99.90;;;;;;5076414;28;20119;-44
2022/01/18 08:22:13;;;;;;;21.58;3.63;;;5.50;99.90;;;;;;5061413;28;20099;-44
2022/01/18 08:24:39;;;;;;;9.40;2.95;;;5.50;99.90;;;;;;5076912;28;20047;-44
2022/01/18 08:27:04;;;;;;;10.15;2.90;;;5.60;99.90;;;;;;5087911;28;20024;-45
2022/01/18 08:29:30;;;;;;;11.48;3.55;;;5.60;99.90;;;;;;5070275;28;20077;-43
2022/01/18 08:31:56;;;;;;;11.65;3.20;;;5.60;99.90;;;;;;5057270;28;20044;-44
2022/01/18 08:34:21;;;;;;;13.05;3.95;;;5.60;99.90;;;;;;5067895;28;20028;-45
2022/01/18 08:36:47;;;;;;;10.70;3.85;;;5.70;99.90;;;;;;5057429;28;20029;-44
2022/01/18 08:39:13;;;;;;;15.35;3.65;;;5.70;99.90;;;;;;5055478;28;20025;-44
2022/01/18 08:41:38;;;;;;;10.05;3.75;;;5.70;99.90;;;;;;5068403;28;20016;-42
2022/01/18 08:44:04;;;;;;;12.70;3.88;;;5.70;99.90;;;;;;5068171;28;20032;-42
2022/01/18 08:46:30;;;;;;;9.32;2.95;;;5.70;99.90;;;;;;5055096;28;20037;-44
2022/01/18 08:48:55;;;;;;;11.40;3.03;;;5.80;99.90;;;;;;5055139;28;20171;-44
2022/01/18 08:51:21;;;;;;;11.30;3.35;;;5.80;99.90;;;;;;5080333;28;20024;-44
2022/01/18 08:53:50;;;;;;;11.38;2.80;;;5.90;99.90;;;;;;5088300;28;20122;-45
2022/01/18 08:56:17;;;;;;;8.63;2.88;;;5.90;99.90;;;;;;5076343;28;20020;-44
2022/01/18 08:58:43;;;;;;;9.63;2.78;;;5.90;99.90;;;;;;5069437;28;20028;-43
2022/01/18 09:01:10;;;;;;;8.40;3.03;;;5.90;99.90;;;;;;5079550;28;20020;-44
2022/01/18 09:03:35;;;;;;;11.10;3.72;;;6.00;99.90;;;;;;5071079;28;20486;-43
2022/01/18 09:06:03;;;;;;;11.55;4.00;;;6.00;99.90;;;;;;5064765;28;20039;-43
2022/01/18 09:08:29;;;;;;;8.25;3.00;;;6.10;99.90;;;;;;5074126;28;20539;-44
2022/01/18 09:10:54;;;;;;;11.85;3.30;;;6.10;99.90;;;;;;5081896;28;20029;-43
2022/01/18 09:13:22;;;;;;;12.73;4.05;;;6.10;99.90;;;;;;5072121;28;20427;-43
2022/01/18 09:15:48;;;;;;;8.93;3.60;;;6.20;99.90;;;;;;5071406;28;20490;-42
2022/01/18 09:18:14;;;;;;;14.30;3.35;;;6.10;99.90;;;;;;5066668;28;20100;-44
2022/01/18 09:20:39;;;;;;;8.70;3.60;;;6.10;99.90;;;;;;5063942;28;20102;-43
2022/01/18 09:23:05;;;;;;;9.27;4.03;;;6.20;99.90;;;;;;5070892;28;20033;-45
2022/01/18 09:25:32;;;;;;;8.32;3.67;;;6.20;99.90;;;;;;5057730;28;20103;-43
2022/01/18 09:27:57;;;;;;;10.65;2.83;;;6.20;99.90;;;;;;5067134;28;20020;-44
2022/01/18 09:30:26;;;;;;;8.82;3.50;;;6.20;99.90;;;;;;5081850;28;20049;-43
2022/01/18 09:32:53;;;;;;;10.27;3.65;;;6.20;99.90;;;;;;5071457;28;20063;-43
2022/01/18 09:35:19;;;;;;;12.02;3.45;;;6.20;99.90;;;;;;5062323;28;20025;-43
2022/01/18 09:37:45;;;;;;;14.45;4.60;;;6.20;99.90;;;;;;5051053;28;20044;-43
2022/01/18 09:40:14;;;;;;;12.75;3.83;;;6.20;99.90;;;;;;5075814;28;20432;-43
2022/01/18 09:42:43;;;;;;;15.80;4.15;;;6.30;99.90;;;;;;5085061;28;20057;-43
2022/01/18 09:45:13;;;;;;;14.23;4.18;;;6.30;99.90;;;;;;5074017;28;20115;-45
2022/01/18 09:47:40;;;;;;;11.45;3.60;;;6.30;99.90;;;;;;5061122;28;20412;-43
2022/01/18 09:50:09;;;;;;;9.57;3.50;;;6.30;99.90;;;;;;5070770;28;20033;-43
2022/01/18 09:52:35;;;;;;;12.32;4.05;;;6.30;99.90;;;;;;5068692;28;20067;-43
2022/01/18 09:55:01;;;;;;;12.23;3.67;;;6.30;99.90;;;;;;5060027;28;20525;-43
2022/01/18 09:57:26;;;;;;;11.70;3.65;;;6.30;99.90;;;;;;5069968;28;20052;-44
2022/01/18 09:59:52;;;;;;;16.50;5.00;;;6.30;99.90;;;;;;5079309;28;20122;-43
2022/01/18 10:02:19;;;;;;;13.57;4.60;;;6.30;99.90;;;;;;5064323;28;20585;-43
2022/01/18 10:04:45;;;;;;;9.82;4.53;;;6.30;99.90;;;;;;5054957;28;20035;-44
2022/01/18 10:07:11;;;;;;;13.73;5.45;;;6.30;99.90;;;;;;5058315;28;20486;-45
2022/01/18 10:09:38;;;;;;;17.10;5.80;;;6.30;99.90;;;;;;5079114;28;20031;-44
2022/01/18 10:12:11;;;;;;;17.75;5.60;;;6.30;99.90;;;;;;5073280;28;20379;-44
2022/01/18 10:14:39;;;;;;;11.48;5.95;;;6.40;99.90;;;;;;5050796;28;20025;-44
2022/01/18 10:17:06;;;;;;;16.90;6.60;;;6.40;99.90;;;;;;5054340;28;20528;-44
2022/01/18 10:19:33;;;;;;;17.10;6.72;;;6.50;99.90;;;;;;5059873;28;20025;-44
2022/01/18 10:22:11;;;;;;;18.98;6.72;;;6.50;99.90;;;;;;5072320;28;20039;-44
2022/01/18 10:24:37;;;;;;;14.80;6.03;;;6.70;99.90;;;;;;5083886;28;20024;-44
2022/01/18 10:27:03;;;;;;;14.77;6.20;;;6.70;99.90;;;;;;5063809;28;20025;-46
2022/01/18 10:29:31;;;;;;;13.10;6.53;;;6.80;99.90;;;;;;5082052;28;20051;-45
2022/01/18 10:32:01;;;;;;;15.30;6.97;;;6.80;99.90;;;;;;5080511;28;20020;-46
2022/01/18 10:37:00;;;;;;;11.73;6.45;;;7.00;99.90;;;;;;5058782;28;20116;-45
2022/01/18 10:39:28;;;;;;;15.07;6.28;;;7.00;99.90;;;;;;5064578;28;20115;-44
2022/01/18 10:41:54;;;;;;;12.38;6.38;;;7.00;99.90;;;;;;5065121;28;20458;-44
2022/01/18 10:44:20;;;;;;;15.13;6.38;;;7.00;99.90;;;;;;5065054;28;20086;-44
2022/01/18 10:46:57;;;;;;;17.50;7.28;;;7.00;99.90;;;;;;5081753;28;20515;-45
2022/01/18 10:49:31;;;;;;;12.63;6.93;;;7.10;99.90;;;;;;5066240;28;20031;-43
2022/01/18 10:52:02;;;;;;;11.63;6.90;;;7.20;99.90;;;;;;5062212;28;20323;-45
2022/01/18 10:54:35;;;;;;;;;;;7.40;99.90;;;;;;5077668;28;20016;-44
2022/01/18 10:57:03;;;;;;;17.05;7.13;;;7.40;99.90;;;;;;5069703;28;20152;-45
2022/01/18 10:59:29;;;;;;;13.70;5.47;;;7.40;99.90;;;;;;5076651;28;20024;-44
2022/01/18 11:02:04;;;;;;;12.57;6.10;;;7.60;99.90;;;;;;5087329;28;20074;-44
2022/01/18 11:04:30;;;;;;;10.55;5.68;;;7.60;99.90;;;;;;5090055;28;20028;-44
2022/01/18 11:07:00;;;;;;;12.32;5.97;;;7.70;99.90;;;;;;5056932;28;20441;-44
2022/01/18 11:09:26;;;;;;;10.27;5.82;;;7.80;99.90;;;;;;5058846;28;20020;-43
2022/01/18 11:11:51;;;;;;;14.40;6.60;;;7.90;99.90;;;;;;5066614;28;20075;-44
2022/01/18 11:14:24;;;;;;;15.90;5.90;;;7.90;99.90;;;;;;5060104;28;20344;-44
2022/01/18 11:16:52;;;;;;;12.20;6.68;;;7.90;99.90;;;;;;5058895;28;20021;-44
2022/01/18 11:21:46;;;;;;;12.15;5.30;;;7.80;99.90;;;;;;5074763;28;20040;-43
2022/01/18 11:24:14;;;;;;;13.35;5.95;;;7.90;99.90;;;;;;5081746;28;20074;-44
2022/01/18 11:26:41;;;;;;;15.32;5.38;;;7.90;99.90;;;;;;5064643;28;20534;-43
2022/01/18 11:29:07;;;;;;;14.32;5.40;;;7.80;99.90;;;;;;5073967;28;20020;-44
2022/01/18 11:31:34;;;;;;;11.38;5.65;;;7.80;99.90;;;;;;5083643;28;20054;-45
2022/01/18 11:34:00;;;;;;;13.60;5.88;;;7.80;99.90;;;;;;5088495;28;20020;-44
2022/01/18 11:36:33;;;;;;;15.55;5.80;;;7.90;99.90;;;;;;5071439;28;20078;-43
2022/01/18 11:39:04;;;;;;;10.60;5.50;;;7.90;99.90;;;;;;5056421;28;20032;-44
2022/01/18 11:41:34;;;;;;;15.77;5.47;;;7.90;99.90;;;;;;5069571;28;20085;-43
2022/01/18 11:44:13;;;;;;;13.07;4.93;;;8.10;99.90;;;;;;5062697;28;20448;-43
2022/01/18 11:46:45;;;;;;;12.57;5.03;;;8.20;99.90;;;;;;5065293;28;20498;-43
2022/01/18 11:49:21;;;;;;;11.68;5.20;;;8.40;99.90;;;;;;5055777;28;20028;-43
2022/01/18 11:52:00;;;;;;;14.93;5.07;;;8.40;99.90;;;;;;5048294;28;20533;-46
2022/01/18 11:57:23;;;;;;;17.10;6.78;;;8.50;99.90;;;;;;5054330;28;20044;-44
2022/01/18 12:00:00;;;;;;;12.00;4.47;;;8.50;99.90;;;;;;5076822;28;20370;-44
2022/01/18 12:02:38;;;;;;;15.25;4.95;;;8.40;99.90;;;;;;5060530;28;20056;-42
2022/01/18 12:05:18;;;;;;;12.30;4.40;;;8.40;99.90;;;;;;5068346;28;20020;-42
2022/01/18 12:07:44;;;;;;;15.17;4.00;;;8.30;99.90;;;;;;5055764;28;20025;-42
2022/01/18 12:10:33;;;;;;;14.65;4.85;;;8.30;99.90;;;;;;5063888;28;20452;-44
2022/01/18 12:13:14;;;;;;;24.33;5.03;;;8.20;99.90;;;;;;5062655;28;20061;-45
2022/01/18 12:15:49;;;;;;;13.32;4.80;;;8.20;99.90;;;;;;5058045;28;20074;-42
2022/01/18 12:18:16;;;;;;;20.95;5.30;;;8.10;99.90;;;;;;5057217;28;20028;-43
2022/01/18 12:20:43;;;;;;;17.23;5.78;;;8.10;99.90;;;;;;5063264;28;20020;-44
2022/01/18 12:23:17;;;;;;;15.68;4.18;;;8.20;99.90;;;;;;5066656;28;20024;-43
2022/01/18 12:25:57;;;;;;;18.00;5.18;;;8.20;99.90;;;;;;5060112;28;20195;-42
2022/01/18 12:29:07;;;;;;;23.67;6.15;;;8.20;99.90;;;;;;5058633;28;20020;-43
2022/01/18 12:34:31;;;;;;;15.70;4.25;;;8.20;99.90;;;;;;5068518;28;20052;-43
2022/01/18 12:36:56;;;;;;;16.92;4.30;;;8.20;99.90;;;;;;5066513;28;20020;-44
2022/01/18 12:39:23;;;;;;;17.10;4.43;;;8.20;99.90;;;;;;5058817;28;20283;-43
2022/01/18 12:41:56;;;;;;;14.50;3.97;;;8.20;99.90;;;;;;5058163;28;20104;-44
2022/01/18 12:44:22;;;;;;;17.45;4.10;;;8.10;99.90;;;;;;5060465;28;20477;-43
2022/01/18 12:46:59;;;;;;;10.77;4.07;;;8.10;99.90;;;;;;5061014;28;20108;-44
2022/01/18 12:49:27;;;;;;;13.13;4.20;;;8.10;99.90;;;;;;5055981;28;20041;-44
2022/01/18 12:51:59;;;;;;;16.73;4.35;;;8.00;99.90;;;;;;5058519;28;20024;-44
2022/01/18 12:54:38;;;;;;;14.00;3.45;;;8.00;99.90;;;;;;5062415;28;20052;-43
2022/01/18 12:57:21;;;;;;;16.55;4.07;;;8.00;99.90;;;;;;5067644;28;20025;-44
2022/01/18 13:00:02;;;;;;;18.27;4.05;;;8.00;99.90;;;;;;5072981;28;20504;-44
2022/01/18 13:02:28;;;;;;;16.00;3.53;;;8.10;99.90;;;;;;5047022;28;20548;-44
2022/01/18 13:05:01;;;;;;;11.40;3.10;;;8.10;99.90;;;;;;5072496;28;20036;-46
2022/01/18 13:07:27;;;;;;;15.93;3.38;;;8.20;99.90;;;;;;5087881;28;20028;-45
2022/01/18 13:09:58;;;;;;;15.93;3.50;;;8.20;99.90;;;;;;5053433;28;20040;-44
2022/01/18 13:12:33;;;;;;;;;;;8.20;99.90;;;;;;5048575;28;20032;-44
2022/01/18 13:15:00;;;;;;;14.40;3.08;;;8.20;99.90;;;;;;5050157;28;20117;-45
2022/01/18 13:23:15;;;;;;;21.40;3.90;;;8.30;99.90;;;;;;5068426;28;20039;-44
2022/01/18 13:26:01;;;;;;;16.15;3.88;;;8.40;99.90;;;;;;5066438;28;20032;-44
2022/01/18 13:28:34;;;;;;;10.05;2.85;;;8.50;99.90;;;;;;5069435;28;20070;-44
2022/01/18 13:31:13;;;;;;;12.27;2.88;;;8.50;99.90;;;;;;5069132;28;20026;-44
2022/01/18 13:34:00;;;;;;;14.18;3.30;;;8.50;99.90;;;;;;5073836;28;20044;-44
2022/01/18 13:36:29;;;;;;;18.17;3.70;;;8.50;99.90;;;;;;5059368;28;20029;-44
2022/01/18 13:38:55;;;;;;;12.07;3.30;;;8.50;99.90;;;;;;5047280;28;20017;-45
2022/01/18 13:41:21;;;;;;;12.57;3.20;;;8.50;99.90;;;;;;5049239;28;20032;-45
2022/01/18 13:43:47;;;;;;;15.52;3.17;;;8.40;99.90;;;;;;5047661;28;20056;-44
2022/01/18 13:46:29;;;;;;;16.55;4.07;;;8.30;99.90;;;;;;5048867;28;20039;-43
2022/01/18 13:49:08;;;;;;;16.23;3.47;;;8.20;99.90;;;;;;5051223;28;20052;-44
2022/01/18 13:51:33;;;;;;;14.45;3.20;;;8.10;99.90;;;;;;5069344;28;20052;-44
2022/01/18 13:54:06;;;;;;;28.30;4.03;;;8.00;99.90;;;;;;5071483;28;20500;-44
2022/01/18 13:56:32;;;;;;;16.83;3.70;;;8.00;99.90;;;;;;5068074;28;20479;-44
2022/01/18 13:59:05;;;;;;;13.95;4.00;;;7.90;99.90;;;;;;5077948;28;20077;-44
2022/01/18 14:01:41;;;;;;;19.05;3.80;;;7.90;99.90;;;;;;5049964;28;20040;-45
2022/01/18 14:04:15;;;;;;;10.20;3.53;;;7.90;99.90;;;;;;5058672;28;20111;-44
2022/01/18 14:06:43;;;;;;;19.58;3.50;;;7.90;99.90;;;;;;5058974;28;20032;-45
2022/01/18 14:09:11;;;;;;;14.00;3.70;;;8.00;99.90;;;;;;5051565;28;20039;-44
2022/01/18 14:11:38;;;;;;;24.00;4.97;;;8.00;99.90;;;;;;5068560;28;20027;-44
2022/01/18 14:14:25;;;;;;;20.25;5.40;;;7.90;99.90;;;;;;5050462;28;20029;-44
2022/01/18 14:16:53;;;;;;;22.13;5.00;;;7.90;99.90;;;;;;5066155;28;20024;-44
2022/01/18 14:19:34;;;;;;;18.90;4.07;;;7.90;99.90;;;;;;5052417;28;20418;-44